« Back
NWS Peachtree City, Ga » Text Product » MCN Terminal Aerodrome Forecast


Printer-friendly Version
Current Version              Previous Versions:   1  2  3  4  5  6  7  8  9  

Terminal Aerodrome Forecast

271
FTUS42 KFFC 312100 AAA
TAFMCN
TAF AMD
KMCN 312124Z 3121/0118 02004KT P6SM VCSH BKN040
     FM312300 07006KT P6SM BKN050
     FM010500 05005KT P6SM BKN018
     FM010800 06003KT P6SM BKN007
     FM011500 06005KT P6SM BKN015 BKN025 PROB30 0115/0118 4SM -RA
      BR=



USA.gov is the U.S. government's official web portal to all federal, state and local government web resources and services.